createdAt,value
2022-08-09T00:01:58.216Z,1.90
2022-08-09T00:04:34.572Z,1.70
2022-08-09T00:07:10.847Z,1.95
2022-08-09T00:09:41.265Z,2.08
2022-08-09T00:12:22.350Z,1.88
2022-08-09T00:14:55.848Z,1.92
2022-08-09T00:18:07.513Z,2.15
2022-08-09T00:20:17.521Z,1.90
2022-08-09T00:22:49.142Z,1.95
2022-08-09T00:25:23.618Z,1.73
2022-08-09T00:28:04.248Z,1.48
2022-08-09T00:30:34.741Z,1.77
2022-08-09T00:33:05.630Z,2.10
2022-08-09T00:35:43.022Z,1.83
2022-08-09T00:38:14.027Z,1.50
2022-08-09T00:40:52.392Z,1.80
2022-08-09T00:44:11.380Z,1.58
2022-08-09T00:46:14.588Z,1.63
2022-08-09T00:49:04.737Z,1.48
2022-08-09T00:51:54.446Z,1.50
2022-08-09T00:54:35.182Z,1.63
2022-08-09T00:57:08.915Z,1.80
2022-08-09T00:59:47.112Z,1.65
2022-08-09T01:02:27.240Z,1.70
2022-08-09T01:05:51.018Z,1.40
2022-08-09T01:08:49.363Z,1.57
2022-08-09T01:11:35.253Z,1.45
2022-08-09T01:14:29.084Z,1.58
2022-08-09T01:17:17.916Z,1.50
2022-08-09T01:20:06.654Z,1.58
2022-08-09T01:22:51.296Z,1.50
2022-08-09T01:25:57.247Z,1.95
2022-08-09T01:28:28.018Z,1.77
2022-08-09T01:31:01.412Z,1.60
2022-08-09T01:33:37.511Z,1.60
2022-08-09T01:36:11.997Z,1.95
2022-08-09T01:38:47.296Z,1.90
2022-08-09T01:41:28.514Z,1.75
2022-08-09T01:44:03.358Z,1.58
2022-08-09T01:46:41.890Z,1.95
2022-08-09T01:49:23.960Z,1.33
2022-08-09T01:52:07.441Z,1.45
2022-08-09T01:54:44.443Z,1.77
2022-08-09T01:57:23.995Z,1.50
2022-08-09T02:00:08.815Z,1.88
2022-08-09T02:02:43.745Z,1.52
2022-08-09T02:05:18.555Z,1.70
2022-08-09T02:08:38.948Z,1.50
2022-08-09T02:10:50.925Z,1.58
2022-08-09T02:13:26.205Z,2.15
2022-08-09T02:18:48.430Z,1.40
2022-08-09T02:21:22.310Z,1.60
2022-08-09T02:23:56.560Z,1.63
2022-08-09T02:26:30.393Z,1.75
2022-08-09T02:29:23.752Z,2.00
2022-08-09T02:32:01.341Z,1.70
2022-08-09T02:34:40.712Z,1.63
2022-08-09T02:37:31.752Z,1.40
2022-08-09T02:40:10.658Z,1.45
2022-08-09T02:42:45.289Z,1.50
2022-08-09T02:45:30.281Z,1.33
2022-08-09T02:48:19.479Z,1.60
2022-08-09T02:51:02.521Z,1.42
2022-08-09T02:53:43.137Z,1.40
2022-08-09T02:56:24.330Z,1.67
2022-08-09T02:59:01.217Z,1.60
2022-08-09T03:01:58.676Z,1.85
2022-08-09T03:04:24.287Z,2.60
2022-08-09T03:07:12.429Z,3.10
2022-08-09T03:09:54.268Z,3.72
2022-08-09T03:12:28.973Z,3.50
2022-08-09T03:14:59.962Z,3.67
2022-08-09T03:17:31.734Z,3.65
2022-08-09T03:20:05.006Z,4.40
2022-08-09T03:22:44.873Z,5.63
2022-08-09T03:25:26.242Z,6.70
2022-08-09T03:28:11.309Z,4.63
2022-08-09T03:30:43.521Z,4.10
2022-08-09T03:33:19.284Z,3.53
2022-08-09T03:36:15.604Z,3.92
2022-08-09T03:38:43.545Z,3.88
2022-08-09T03:41:16.597Z,3.53
2022-08-09T03:44:03.492Z,2.40
2022-08-09T03:46:39.134Z,1.90
2022-08-09T03:49:10.597Z,2.17
2022-08-09T03:51:57.589Z,1.95
2022-08-09T03:54:34.599Z,1.90
2022-08-09T03:57:18.649Z,1.70
2022-08-09T03:59:54.783Z,1.80
2022-08-09T04:02:28.722Z,1.80
2022-08-09T04:05:06.319Z,1.90
2022-08-09T04:07:52.982Z,1.48
2022-08-09T04:10:28.794Z,1.85
2022-08-09T04:13:03.822Z,1.67
2022-08-09T04:15:52.074Z,1.90
2022-08-09T04:18:25.127Z,1.70
2022-08-09T04:20:56.846Z,1.67
2022-08-09T04:23:27.122Z,1.50
2022-08-09T04:25:57.506Z,1.88
2022-08-09T04:28:33.941Z,1.70
2022-08-09T04:31:09.510Z,1.65
2022-08-09T04:33:52.182Z,1.63
2022-08-09T04:36:29.593Z,1.58
2022-08-09T04:39:02.269Z,1.50
2022-08-09T04:41:33.935Z,1.58
2022-08-09T04:44:14.767Z,1.55
2022-08-09T04:46:59.148Z,1.40
2022-08-09T04:49:52.540Z,1.50
2022-08-09T04:52:27.820Z,1.80
2022-08-09T04:55:00.205Z,1.80
2022-08-09T04:57:54.259Z,1.80
2022-08-09T05:00:20.927Z,2.08
2022-08-09T05:02:51.867Z,1.85
2022-08-09T05:05:32.304Z,1.80
2022-08-09T05:08:15.198Z,1.85
2022-08-09T05:10:45.738Z,2.13
2022-08-09T05:13:15.978Z,1.75
2022-08-09T05:15:48.015Z,1.70
2022-08-09T05:18:38.800Z,1.77
2022-08-09T05:21:09.990Z,1.55
2022-08-09T05:23:58.240Z,1.88
2022-08-09T05:26:37.065Z,1.60
2022-08-09T05:29:21.562Z,1.70
2022-08-09T05:31:58.414Z,1.70
2022-08-09T05:37:06.902Z,1.60
2022-08-09T05:39:43.410Z,1.67
2022-08-09T05:42:21.273Z,2.00
2022-08-09T05:44:54.234Z,1.90
2022-08-09T05:47:27.333Z,1.38
2022-08-09T05:52:53.410Z,1.30
2022-08-09T05:55:24.541Z,1.17
2022-08-09T05:57:57.135Z,1.38
2022-08-09T06:00:31.094Z,1.35
2022-08-09T06:03:10.657Z,1.20
2022-08-09T06:05:58.216Z,1.40
2022-08-09T06:08:31.476Z,1.60
2022-08-09T06:11:01.711Z,1.50
2022-08-09T06:13:47.319Z,1.00
2022-08-09T06:16:18.186Z,1.60
2022-08-09T06:18:48.413Z,1.52
2022-08-09T06:21:19.393Z,1.50
2022-08-09T06:23:57.582Z,1.45
2022-08-09T06:26:31.680Z,1.48
2022-08-09T06:29:05.068Z,1.50
2022-08-09T06:31:40.538Z,1.60
2022-08-09T06:34:29.907Z,1.63
2022-08-09T06:37:01.040Z,1.17
2022-08-09T06:39:49.164Z,1.30
2022-08-09T06:42:24.746Z,1.60
2022-08-09T06:45:00.224Z,1.48
2022-08-09T06:47:41.678Z,1.33
2022-08-09T06:50:14.501Z,1.40
2022-08-09T06:52:49.208Z,1.48
2022-08-09T06:55:22.926Z,1.45
2022-08-09T06:58:03.410Z,1.40
2022-08-09T07:00:54.358Z,1.55
2022-08-09T07:03:28.779Z,1.80
2022-08-09T07:06:04.461Z,1.48
2022-08-09T07:11:12.465Z,1.50
2022-08-09T07:14:04.214Z,1.67
2022-08-09T07:16:42.478Z,1.33
2022-08-09T07:19:23.688Z,1.77
2022-08-09T07:21:57.315Z,1.52
2022-08-09T07:24:40.105Z,1.33
2022-08-09T07:27:33.309Z,1.27
2022-08-09T07:30:03.357Z,1.45
2022-08-09T07:32:36.270Z,1.45
2022-08-09T07:35:11.949Z,1.25
2022-08-09T07:37:45.883Z,1.25
2022-08-09T07:40:20.670Z,1.20
2022-08-09T07:43:01.037Z,1.30
2022-08-09T07:45:39.473Z,1.38
2022-08-09T07:48:25.776Z,1.50
2022-08-09T07:51:10.244Z,1.30
2022-08-09T07:54:07.350Z,1.55
2022-08-09T07:56:48.834Z,1.40
2022-08-09T07:59:34.756Z,1.55
2022-08-09T08:02:11.205Z,1.25
2022-08-09T08:04:53.587Z,1.20
2022-08-09T08:08:43.500Z,1.00
2022-08-09T08:10:14.770Z,1.23
2022-08-09T08:12:48.924Z,1.55
2022-08-09T08:15:23.057Z,1.63
2022-08-09T08:17:57.891Z,1.40
2022-08-09T08:20:32.961Z,1.52
2022-08-09T08:23:16.394Z,1.40
2022-08-09T08:25:50.377Z,1.27
2022-08-09T08:28:25.999Z,1.10
2022-08-09T08:31:13.788Z,1.05
2022-08-09T08:33:53.330Z,1.10
2022-08-09T08:36:29.109Z,1.20
2022-08-09T08:39:00.752Z,1.08
2022-08-09T08:41:50.627Z,0.82
2022-08-09T08:44:29.396Z,0.90
2022-08-09T08:47:04.603Z,1.05
2022-08-09T08:49:48.520Z,0.98
2022-08-09T08:52:58.123Z,1.10
2022-08-09T08:55:23.508Z,1.05
2022-08-09T09:00:30.372Z,1.00
2022-08-09T09:03:11.347Z,0.90
2022-08-09T09:06:00.393Z,1.00
2022-08-09T09:08:40.729Z,0.90
2022-08-09T09:11:13.844Z,1.20
2022-08-09T09:13:56.490Z,0.80
2022-08-09T09:16:32.260Z,0.90
2022-08-09T09:19:40.719Z,0.80
2022-08-09T09:22:04.272Z,0.82
2022-08-09T09:24:40.534Z,0.80
2022-08-09T09:28:04.363Z,1.20
2022-08-09T09:30:31.525Z,0.80
2022-08-09T09:33:15.576Z,1.10
2022-08-09T09:36:01.703Z,0.95
2022-08-09T09:38:59.169Z,0.90
2022-08-09T09:41:33.177Z,0.90
2022-08-09T09:44:33.883Z,0.73
2022-08-09T09:47:05.783Z,0.73
2022-08-09T09:50:13.290Z,1.30
2022-08-09T09:52:36.223Z,0.85
2022-08-09T09:55:28.808Z,0.90
2022-08-09T09:58:18.776Z,1.15
2022-08-09T10:00:55.095Z,0.75
2022-08-09T10:03:38.338Z,0.80
2022-08-09T10:06:11.726Z,0.95
2022-08-09T10:08:57.207Z,0.90
2022-08-09T10:11:59.219Z,1.00
2022-08-09T10:14:33.675Z,0.82
2022-08-09T10:17:24.281Z,0.70
2022-08-09T10:20:26.962Z,1.10
2022-08-09T10:23:23.766Z,0.90
2022-08-09T10:26:08.126Z,0.90
2022-08-09T10:28:48.836Z,1.08
2022-08-09T10:34:19.086Z,0.80
2022-08-09T10:37:03.398Z,0.90
2022-08-09T10:39:40.542Z,0.80
2022-08-09T10:42:20.487Z,1.05
2022-08-09T10:45:04.875Z,1.08
2022-08-09T10:48:16.528Z,1.00
2022-08-09T10:51:15.445Z,0.80
2022-08-09T10:54:06.131Z,0.82
2022-08-09T10:56:43.887Z,1.20
2022-08-09T10:59:31.248Z,1.05
2022-08-09T11:03:15.188Z,1.00
2022-08-09T11:14:57.408Z,3.10
2022-08-09T11:17:27.712Z,3.15
2022-08-09T11:20:20.528Z,2.40
2022-08-09T11:22:57.004Z,2.15
2022-08-09T11:25:45.225Z,2.40
2022-08-09T11:28:38.400Z,1.98
2022-08-09T11:31:39.697Z,1.60
2022-08-09T11:34:34.953Z,1.75
2022-08-09T11:37:07.856Z,1.73
2022-08-09T11:40:05.927Z,1.92
2022-08-09T11:42:52.874Z,1.60
2022-08-09T11:45:42.730Z,1.15
2022-08-09T11:48:26.575Z,1.33
2022-08-09T11:52:06.801Z,1.17
2022-08-09T11:54:01.171Z,1.00
2022-08-09T11:56:47.673Z,1.08
2022-08-09T11:59:30.438Z,1.10
2022-08-09T12:02:35.212Z,1.27
2022-08-09T12:04:57.953Z,1.05
2022-08-09T12:07:41.200Z,1.02
2022-08-09T12:10:38.114Z,1.10
2022-08-09T12:14:10.047Z,1.10
2022-08-09T12:16:05.395Z,0.90
2022-08-09T12:18:56.247Z,1.00
2022-08-09T12:21:38.634Z,0.80
2022-08-09T12:24:11.566Z,0.80
2022-08-09T12:26:45.024Z,0.80
2022-08-09T12:29:44.614Z,0.70
2022-08-09T12:32:28.127Z,0.80
2022-08-09T12:37:44.109Z,0.90
2022-08-09T12:40:27.735Z,0.70
2022-08-09T12:42:58.130Z,0.88
2022-08-09T12:45:33.198Z,1.00
2022-08-09T12:48:20.277Z,0.80
2022-08-09T12:50:59.552Z,0.73
2022-08-09T12:53:41.229Z,0.63
2022-08-09T12:56:39.509Z,0.70
2022-08-09T12:59:10.097Z,0.60
2022-08-09T13:01:49.951Z,0.80
2022-08-09T13:04:35.880Z,0.88
2022-08-09T13:07:19.604Z,0.82
2022-08-09T13:10:01.998Z,0.80
2022-08-09T13:12:33.046Z,0.75
2022-08-09T13:15:10.758Z,0.90
2022-08-09T13:18:02.435Z,1.15
2022-08-09T13:20:37.951Z,0.90
2022-08-09T13:24:07.123Z,0.90
2022-08-09T13:26:49.978Z,0.80
2022-08-09T13:30:03.297Z,0.90
2022-08-09T13:32:38.287Z,0.60
2022-08-09T13:35:14.153Z,1.30
2022-08-09T13:37:56.569Z,0.88
2022-08-09T13:41:46.489Z,0.80
2022-08-09T13:43:19.194Z,0.93
2022-08-09T13:46:42.676Z,0.93
2022-08-09T13:48:42.286Z,0.82
2022-08-09T13:51:12.679Z,0.70
2022-08-09T13:53:44.739Z,0.90
2022-08-09T13:56:18.271Z,0.98
2022-08-09T13:58:53.375Z,0.70
2022-08-09T14:01:56.295Z,0.82
2022-08-09T14:04:14.059Z,0.70
2022-08-09T14:06:59.202Z,0.80
2022-08-09T14:09:30.573Z,0.88
2022-08-09T14:12:07.045Z,1.00
2022-08-09T14:14:46.169Z,1.60
2022-08-09T14:17:24.153Z,0.90
2022-08-09T14:20:05.701Z,1.10
2022-08-09T14:22:36.965Z,1.05
2022-08-09T14:25:10.129Z,1.05
2022-08-09T14:27:58.368Z,1.20
2022-08-09T14:30:36.986Z,1.50
2022-08-09T14:33:11.879Z,1.05
2022-08-09T14:35:52.105Z,1.25
2022-08-09T14:38:23.483Z,1.05
2022-08-09T14:41:02.136Z,1.15
2022-08-09T14:43:47.390Z,1.20
2022-08-09T14:46:54.859Z,1.23
2022-08-09T14:49:10.511Z,1.20
2022-08-09T14:51:42.361Z,1.00
2022-08-09T14:54:13.218Z,1.00
2022-08-09T14:56:53.695Z,1.10
2022-08-09T14:59:28.768Z,1.38
2022-08-09T15:01:59.007Z,1.00
2022-08-09T15:04:29.302Z,1.10
2022-08-09T15:06:59.507Z,0.80
2022-08-09T15:10:07.656Z,1.00
2022-08-09T15:12:21.007Z,1.30
2022-08-09T15:14:52.864Z,0.80
2022-08-09T15:17:23.342Z,1.10
2022-08-09T15:19:59.455Z,1.10
2022-08-09T15:22:33.295Z,1.20
2022-08-09T15:25:04.340Z,1.20
2022-08-09T15:27:48.032Z,1.30
2022-08-09T15:30:58.561Z,1.08
2022-08-09T15:33:23.388Z,1.30
2022-08-09T15:36:06.099Z,1.08
2022-08-09T15:38:36.518Z,1.25
2022-08-09T15:41:09.332Z,1.15
2022-08-09T15:43:40.723Z,1.00
2022-08-09T15:46:32.982Z,1.00
2022-08-09T15:49:21.051Z,1.17
2022-08-09T15:52:03.246Z,1.27
2022-08-09T15:54:49.464Z,1.20
2022-08-09T15:57:34.540Z,1.30
2022-08-09T16:00:14.787Z,1.20
2022-08-09T16:02:54.229Z,1.42
2022-08-09T16:05:47.724Z,1.30
2022-08-09T16:08:29.796Z,1.25
2022-08-09T16:11:02.682Z,0.98
2022-08-09T16:14:03.575Z,1.50
2022-08-09T16:16:26.212Z,1.25
2022-08-09T16:18:58.329Z,1.50
2022-08-09T16:21:31.704Z,2.05
2022-08-09T16:26:43.520Z,1.23
2022-08-09T16:29:20.311Z,1.15
2022-08-09T16:32:19.578Z,1.20
2022-08-09T16:34:54.607Z,1.40
2022-08-09T16:37:55.045Z,1.40
2022-08-09T16:40:29.827Z,1.60
2022-08-09T16:43:09.869Z,1.58
2022-08-09T16:45:44.297Z,1.83
2022-08-09T16:48:39.961Z,1.65
2022-08-09T16:51:07.920Z,1.30
2022-08-09T16:53:56.351Z,1.42
2022-08-09T16:56:30.567Z,1.25
2022-08-09T16:59:10.300Z,1.70
2022-08-09T17:01:43.099Z,1.40
2022-08-09T17:04:26.001Z,1.60
2022-08-09T17:08:43.078Z,1.48
2022-08-09T17:09:48.955Z,1.25
2022-08-09T17:12:20.475Z,1.63
2022-08-09T17:14:57.323Z,1.10
2022-08-09T17:17:30.718Z,1.40
2022-08-09T17:20:35.168Z,1.25
2022-08-09T17:23:10.381Z,1.60
2022-08-09T17:25:52.879Z,1.67
2022-08-09T17:28:23.594Z,1.20
2022-08-09T17:30:53.834Z,2.08
2022-08-09T17:33:23.947Z,1.95
2022-08-09T17:35:54.193Z,1.48
2022-08-09T17:38:32.307Z,1.48
2022-08-09T17:41:07.314Z,1.25
2022-08-09T17:43:38.239Z,1.65
2022-08-09T17:46:09.854Z,1.27
2022-08-09T17:48:46.493Z,1.70
2022-08-09T17:51:22.575Z,1.63
2022-08-09T17:53:55.350Z,1.60
2022-08-09T17:56:35.168Z,1.23
2022-08-09T17:59:09.280Z,1.55
2022-08-09T18:02:07.433Z,1.27
2022-08-09T18:04:33.126Z,1.40
2022-08-09T18:07:07.507Z,1.50
2022-08-09T18:09:41.310Z,1.40
2022-08-09T18:12:17.410Z,1.50
2022-08-09T18:14:54.469Z,1.58
2022-08-09T18:18:01.699Z,1.63
2022-08-09T18:20:54.499Z,1.80
2022-08-09T18:24:11.439Z,1.52
2022-08-09T18:25:59.505Z,1.40
2022-08-09T18:30:38.914Z,1.65
2022-08-09T18:31:32.470Z,1.95
2022-08-09T18:34:13.089Z,2.05
2022-08-09T18:36:49.473Z,2.00
2022-08-09T18:39:20.188Z,2.08
2022-08-09T18:41:52.612Z,2.00
2022-08-09T18:44:25.407Z,2.05
2022-08-09T18:47:05.121Z,2.10
2022-08-09T18:49:46.223Z,1.98
2022-08-09T18:52:18.741Z,1.80
2022-08-09T18:54:55.423Z,1.77
2022-08-09T18:57:42.994Z,2.08
2022-08-09T19:00:16.590Z,1.92
2022-08-09T19:02:54.087Z,1.83
2022-08-09T19:05:28.782Z,1.73
2022-08-09T19:08:19.724Z,2.00
2022-08-09T19:10:50.895Z,2.00
2022-08-09T19:13:38.321Z,1.83
2022-08-09T19:16:20.854Z,1.88
2022-08-09T19:18:51.781Z,2.10
2022-08-09T19:21:47.915Z,2.22
2022-08-09T19:24:36.017Z,2.10
2022-08-09T19:27:03.034Z,2.15
2022-08-09T19:29:38.121Z,2.88
2022-08-09T19:32:30.677Z,4.90
2022-08-09T19:35:02.364Z,7.97
2022-08-09T19:37:54.156Z,8.60
2022-08-09T19:40:33.409Z,7.93
2022-08-09T19:43:10.193Z,6.82
2022-08-09T19:45:46.720Z,6.35
2022-08-09T19:48:17.462Z,5.15
2022-08-09T19:51:08.308Z,4.05
2022-08-09T19:53:45.566Z,3.67
2022-08-09T19:56:18.389Z,3.88
2022-08-09T19:59:33.351Z,7.18
2022-08-09T20:02:06.312Z,45.92
2022-08-09T20:04:47.807Z,39.13
2022-08-09T20:07:33.916Z,33.05
2022-08-09T20:10:17.649Z,22.75
2022-08-09T20:12:52.565Z,13.68
2022-08-09T20:16:35.774Z,11.75
2022-08-09T20:18:31.872Z,10.70
2022-08-09T20:21:02.481Z,9.23
2022-08-09T20:23:38.769Z,6.68
2022-08-09T20:26:13.071Z,4.80
2022-08-09T20:28:48.773Z,3.78
2022-08-09T20:31:20.382Z,3.15
2022-08-09T20:33:58.254Z,3.10
2022-08-09T20:36:28.887Z,2.22
2022-08-09T20:39:28.753Z,2.38
2022-08-09T20:41:49.296Z,1.90
2022-08-09T20:44:26.406Z,2.10
2022-08-09T20:46:57.791Z,2.00
2022-08-09T20:49:28.774Z,1.95
2022-08-09T20:52:00.418Z,2.20
2022-08-09T20:54:31.392Z,2.08
2022-08-09T20:57:01.782Z,1.83
2022-08-09T21:00:20.138Z,1.98
2022-08-09T21:02:22.997Z,2.00
2022-08-09T21:05:51.899Z,2.00
2022-08-09T21:07:44.592Z,1.80
2022-08-09T21:10:14.832Z,1.90
2022-08-09T21:15:34.229Z,1.80
2022-08-09T21:18:21.641Z,1.75
2022-08-09T21:20:56.640Z,1.80
2022-08-09T21:23:47.602Z,2.15
2022-08-09T21:26:17.173Z,2.17
2022-08-09T21:28:55.890Z,1.98
2022-08-09T21:31:48.798Z,2.50
2022-08-09T21:34:21.146Z,2.42
2022-08-09T21:36:59.294Z,1.80
2022-08-09T21:39:42.349Z,2.20
2022-08-09T21:42:13.057Z,1.90
2022-08-09T21:44:43.735Z,2.50
2022-08-09T21:47:18.113Z,2.00
2022-08-09T21:49:50.934Z,2.30
2022-08-09T21:52:21.655Z,1.90
2022-08-09T21:55:03.283Z,2.30
2022-08-09T21:57:38.278Z,2.58
2022-08-09T22:00:33.041Z,2.25
2022-08-09T22:03:07.069Z,2.28
2022-08-09T22:05:42.314Z,1.90
2022-08-09T22:08:16.622Z,2.47
2022-08-09T22:11:50.317Z,2.35
2022-08-09T22:13:38.852Z,2.10
2022-08-09T22:16:13.393Z,2.13
2022-08-09T22:18:54.504Z,1.98
2022-08-09T22:21:50.005Z,1.90
2022-08-09T22:24:20.965Z,2.05
2022-08-09T22:26:55.273Z,2.20
2022-08-09T22:29:34.499Z,1.63
2022-08-09T22:32:29.752Z,1.70
2022-08-09T22:35:06.582Z,1.88
2022-08-09T22:38:06.639Z,1.70
2022-08-09T22:40:38.032Z,2.00
2022-08-09T22:43:16.781Z,1.92
2022-08-09T22:48:11.987Z,1.48
2022-08-09T22:48:50.621Z,1.85
2022-08-09T22:51:24.132Z,2.22
2022-08-09T22:54:02.509Z,1.75
2022-08-09T22:56:34.580Z,1.70
2022-08-09T22:59:55.369Z,1.75
2022-08-09T23:01:56.795Z,1.80
2022-08-09T23:04:27.028Z,1.73
2022-08-09T23:08:09.425Z,1.98
2022-08-09T23:10:12.579Z,2.08
2022-08-09T23:12:43.262Z,1.70
2022-08-09T23:15:13.679Z,1.83
2022-08-09T23:17:43.926Z,1.77
2022-08-09T23:20:14.127Z,1.70
2022-08-09T23:22:44.392Z,1.70
2022-08-09T23:25:14.632Z,1.80
2022-08-09T23:27:57.475Z,2.03
2022-08-09T23:30:35.201Z,1.90
2022-08-09T23:33:05.425Z,2.05
2022-08-09T23:36:06.500Z,2.05
2022-08-09T23:38:26.145Z,1.92
2022-08-09T23:40:56.633Z,1.50
2022-08-09T23:43:26.864Z,1.77
2022-08-09T23:45:57.187Z,1.83
2022-08-09T23:48:27.422Z,1.50
2022-08-09T23:50:57.730Z,1.55
2022-08-09T23:53:32.112Z,2.33
2022-08-09T23:56:09.050Z,2.03
2022-08-09T23:58:39.289Z,1.60
